Terminal Aerodrome Forecast
Issued by NWS

Home | Current Version | Previous Version | Graphics & Text | Print | Product List | Glossary On
Versions: 1 2 3 4 5 6 7 8 9 10 11 12 13 14 15 16 17 18 19 20 21 22
000
FTUS43 KGRB 270500
TAFCWA
TAF
KCWA 270530Z 2706/2806 VRB03KT P6SM BKN120
      TEMPO 2707/2711 6SM -SHRA SCT040 BKN070
     FM271600 29004KT P6SM SCT040
     FM280000 VRB03KT P6SM SCT250
      AMD LTD TO CLD VIS AND WIND TIL 271200=

USA.gov is the U.S. government's official web portal to all federal, state and local government web resources and services.